createdAt,value
2023-01-31T00:01:48.065Z,99095.63
2023-01-31T00:04:16.941Z,99089.84
2023-01-31T00:06:51.354Z,99093.47
2023-01-31T00:09:21.218Z,99096.16
2023-01-31T00:11:52.612Z,99085.72
2023-01-31T00:14:22.508Z,99083.97
2023-01-31T00:16:52.837Z,99088.28
2023-01-31T00:19:22.782Z,99091.84
2023-01-31T00:21:52.118Z,99092.75
2023-01-31T00:24:21.020Z,99082.66
2023-01-31T00:26:56.949Z,99081.84
2023-01-31T00:29:26.616Z,99076.06
2023-01-31T00:31:56.311Z,99083.91
2023-01-31T00:34:26.014Z,99071.81
2023-01-31T00:36:55.472Z,99073.72
2023-01-31T00:39:25.795Z,99067.00
2023-01-31T00:41:56.068Z,99067.13
2023-01-31T00:44:26.537Z,99061.13
2023-01-31T00:46:55.912Z,99059.47
2023-01-31T00:49:26.519Z,99062.63
2023-01-31T00:51:55.110Z,99068.00
2023-01-31T00:54:24.645Z,99066.38
2023-01-31T00:56:56.505Z,99062.22
2023-01-31T00:59:26.526Z,99064.00
2023-01-31T01:01:56.075Z,99062.66
2023-01-31T01:04:24.996Z,99072.59
2023-01-31T01:06:55.633Z,99079.66
2023-01-31T01:09:26.096Z,99095.72
2023-01-31T01:11:56.522Z,99095.81
2023-01-31T01:14:26.531Z,99094.91
2023-01-31T01:16:58.422Z,99089.75
2023-01-31T01:19:28.553Z,99100.06
2023-01-31T01:21:59.048Z,99099.47
2023-01-31T01:24:29.650Z,99096.75
2023-01-31T01:27:00.447Z,99091.31
2023-01-31T01:29:30.366Z,99087.78
2023-01-31T01:32:00.792Z,99090.38
2023-01-31T01:34:29.858Z,99091.19
2023-01-31T01:36:58.473Z,99097.19
2023-01-31T01:39:30.795Z,99099.06
2023-01-31T01:42:02.256Z,99106.81
2023-01-31T01:44:50.226Z,99108.25
2023-01-31T01:47:32.972Z,99110.09
2023-01-31T01:50:09.277Z,99111.97
2023-01-31T01:52:46.964Z,99107.94
2023-01-31T01:55:23.655Z,99103.50
2023-01-31T01:58:02.609Z,99101.88
2023-01-31T02:00:35.078Z,99094.53
2023-01-31T02:03:08.755Z,99095.28
2023-01-31T02:05:44.276Z,99091.97
2023-01-31T02:08:15.292Z,99094.53
2023-01-31T02:10:50.971Z,99106.94
2023-01-31T02:13:23.595Z,99104.38
2023-01-31T02:15:52.802Z,99090.84
2023-01-31T02:18:25.423Z,99093.75
2023-01-31T02:21:50.494Z,99097.69
2023-01-31T02:25:13.984Z,99094.41
2023-01-31T02:28:23.135Z,99088.50
2023-01-31T02:31:47.320Z,99111.72
2023-01-31T02:34:31.940Z,99105.13
2023-01-31T02:37:21.458Z,99103.50
2023-01-31T02:40:08.620Z,99086.38
2023-01-31T02:43:00.739Z,99084.00
2023-01-31T02:45:41.155Z,99095.66
2023-01-31T02:48:25.560Z,99091.84
2023-01-31T02:51:06.647Z,99098.75
2023-01-31T02:53:39.436Z,99099.06
2023-01-31T02:56:15.119Z,99100.72
2023-01-31T02:58:50.729Z,99091.31
2023-01-31T03:01:28.005Z,99089.56
2023-01-31T03:04:03.592Z,99098.44
2023-01-31T03:07:02.287Z,99094.44
2023-01-31T03:09:55.812Z,99096.41
2023-01-31T03:12:46.716Z,99091.34
2023-01-31T03:15:52.169Z,99089.69
2023-01-31T03:18:28.114Z,99096.78
2023-01-31T03:21:05.646Z,99078.75
2023-01-31T03:23:40.215Z,99099.28
2023-01-31T03:26:10.886Z,99090.94
2023-01-31T03:28:44.246Z,99089.50
2023-01-31T03:31:24.167Z,99098.13
2023-01-31T03:33:58.527Z,99092.28
2023-01-31T03:36:37.484Z,99099.28
2023-01-31T03:39:18.912Z,99105.56
2023-01-31T03:41:59.858Z,99101.25
2023-01-31T03:44:42.186Z,99096.19
2023-01-31T03:47:19.760Z,99093.81
2023-01-31T03:49:54.484Z,99097.31
2023-01-31T03:52:30.672Z,99113.69
2023-01-31T03:55:09.557Z,99112.06
2023-01-31T03:57:43.984Z,99117.28
2023-01-31T04:00:18.204Z,99105.25
2023-01-31T04:02:51.607Z,99102.78
2023-01-31T04:05:25.108Z,99101.00
2023-01-31T04:07:54.996Z,99101.97
2023-01-31T04:10:27.128Z,99091.75
2023-01-31T04:12:57.706Z,99093.59
2023-01-31T04:15:29.348Z,99094.63
2023-01-31T04:17:59.808Z,99093.81
2023-01-31T04:20:29.915Z,99093.00
2023-01-31T04:23:00.491Z,99090.50
2023-01-31T04:25:32.815Z,99089.59
2023-01-31T04:28:04.007Z,99093.19
2023-01-31T04:30:34.518Z,99085.56
2023-01-31T04:33:04.022Z,99086.38
2023-01-31T04:35:35.691Z,99073.31
2023-01-31T04:38:05.131Z,99067.44
2023-01-31T04:40:36.553Z,99070.09
2023-01-31T04:43:06.223Z,99082.06
2023-01-31T04:45:35.811Z,99084.72
2023-01-31T04:48:08.885Z,99079.50
2023-01-31T04:50:37.357Z,99082.69
2023-01-31T04:53:08.786Z,99069.69
2023-01-31T04:55:40.572Z,99074.75
2023-01-31T04:58:10.417Z,99084.13
2023-01-31T05:00:40.618Z,99083.94
2023-01-31T05:03:11.081Z,99094.03
2023-01-31T05:05:40.576Z,99091.25
2023-01-31T05:08:09.418Z,99085.97
2023-01-31T05:10:41.766Z,99097.09
2023-01-31T05:13:10.812Z,99096.19
2023-01-31T05:15:41.738Z,99098.66
2023-01-31T05:18:12.162Z,99086.50
2023-01-31T05:20:41.144Z,99093.31
2023-01-31T05:23:11.577Z,99088.03
2023-01-31T05:25:42.779Z,99093.19
2023-01-31T05:28:12.563Z,99094.03
2023-01-31T05:30:42.858Z,99098.97
2023-01-31T05:33:12.628Z,99091.16
2023-01-31T05:35:42.604Z,99096.19
2023-01-31T05:38:12.608Z,99089.06
2023-01-31T05:40:43.491Z,99083.75
2023-01-31T05:43:12.776Z,99086.91
2023-01-31T05:45:42.983Z,99086.81
2023-01-31T05:48:12.488Z,99094.25
2023-01-31T05:50:42.351Z,99097.53
2023-01-31T05:53:12.821Z,99090.53
2023-01-31T05:55:45.172Z,99092.38
2023-01-31T05:58:15.055Z,99090.31
2023-01-31T06:00:44.438Z,99097.00
2023-01-31T06:03:14.607Z,99086.41
2023-01-31T06:05:45.661Z,99072.69
2023-01-31T06:08:15.623Z,99060.63
2023-01-31T06:10:47.202Z,99065.44
2023-01-31T06:13:17.340Z,99063.59
2023-01-31T06:15:47.295Z,99070.50
2023-01-31T06:18:17.920Z,99076.47
2023-01-31T06:20:47.845Z,99072.94
2023-01-31T06:23:17.920Z,99079.75
2023-01-31T06:25:52.514Z,99084.69
2023-01-31T06:28:22.233Z,99076.16
2023-01-31T06:30:52.649Z,99072.56
2023-01-31T06:33:31.479Z,99075.00
2023-01-31T06:36:08.465Z,99081.00
2023-01-31T06:38:39.085Z,99081.72
2023-01-31T06:41:09.037Z,99091.09
2023-01-31T06:43:39.111Z,99088.50
2023-01-31T06:46:09.079Z,99091.00
2023-01-31T06:48:39.833Z,99085.72
2023-01-31T06:51:09.378Z,99086.53
2023-01-31T06:53:38.352Z,99083.88
2023-01-31T06:56:10.578Z,99085.53
2023-01-31T06:58:40.092Z,99082.72
2023-01-31T07:01:11.313Z,99082.00
2023-01-31T07:03:41.158Z,99080.38
2023-01-31T07:06:12.961Z,99064.69
2023-01-31T07:08:42.997Z,99073.13
2023-01-31T07:11:14.442Z,99075.69
2023-01-31T07:13:46.941Z,99069.00
2023-01-31T07:16:17.651Z,99076.41
2023-01-31T07:18:48.237Z,99074.56
2023-01-31T07:21:17.746Z,99078.88
2023-01-31T07:23:48.312Z,99075.25
2023-01-31T07:26:18.832Z,99082.16
2023-01-31T07:28:48.367Z,99088.16
2023-01-31T07:31:18.241Z,99083.00
2023-01-31T07:33:47.901Z,99078.97
2023-01-31T07:36:20.050Z,99088.06
2023-01-31T07:38:50.681Z,99088.16
2023-01-31T07:41:23.149Z,99094.16
2023-01-31T07:43:52.797Z,99101.78
2023-01-31T07:46:21.793Z,99103.41
2023-01-31T07:48:50.811Z,99110.22
2023-01-31T07:51:21.407Z,99108.56
2023-01-31T07:53:52.678Z,99105.06
2023-01-31T07:56:24.730Z,99096.50
2023-01-31T07:58:55.184Z,99109.53
2023-01-31T08:01:44.595Z,99102.41
2023-01-31T08:04:22.382Z,99111.88
2023-01-31T08:06:57.187Z,99109.19
2023-01-31T08:09:26.937Z,99100.53
2023-01-31T08:11:57.700Z,99113.41
2023-01-31T08:14:29.402Z,99110.13
2023-01-31T08:16:58.439Z,99120.53
2023-01-31T08:19:29.717Z,99109.94
2023-01-31T08:22:00.309Z,99106.44
2023-01-31T08:24:30.689Z,99116.75
2023-01-31T08:27:02.821Z,99114.91
2023-01-31T08:29:32.906Z,99120.69
2023-01-31T08:32:03.890Z,99123.25
2023-01-31T08:34:33.680Z,99121.63
2023-01-31T08:37:02.754Z,99115.44
2023-01-31T08:39:33.581Z,99121.91
2023-01-31T08:42:04.606Z,99120.66
2023-01-31T08:44:33.988Z,99124.03
2023-01-31T08:47:04.517Z,99115.59
2023-01-31T08:49:37.677Z,99125.09
2023-01-31T08:52:08.387Z,99118.50
2023-01-31T08:54:39.212Z,99119.09
2023-01-31T08:57:11.032Z,99125.69
2023-01-31T08:59:42.137Z,99125.47
2023-01-31T09:02:13.319Z,99131.59
2023-01-31T09:04:43.434Z,99136.03
2023-01-31T09:07:12.937Z,99139.13
2023-01-31T09:09:43.475Z,99142.41
2023-01-31T09:12:14.722Z,99122.91
2023-01-31T09:14:44.787Z,99119.19
2023-01-31T09:17:14.327Z,99130.66
2023-01-31T09:19:44.768Z,99137.47
2023-01-31T09:22:15.579Z,99134.78
2023-01-31T09:24:46.240Z,99136.19
2023-01-31T09:27:17.566Z,99146.94
2023-01-31T09:29:47.459Z,99140.59
2023-01-31T09:32:17.471Z,99129.47
2023-01-31T09:34:47.840Z,99128.94
2023-01-31T09:37:17.679Z,99120.25
2023-01-31T09:39:47.184Z,99120.47
2023-01-31T09:42:27.424Z,99124.22
2023-01-31T09:45:06.281Z,99125.50
2023-01-31T09:47:43.571Z,99124.97
2023-01-31T09:50:24.658Z,99122.41
2023-01-31T09:52:53.731Z,99110.00
2023-01-31T09:55:38.098Z,99094.75
2023-01-31T09:58:25.182Z,99106.69
2023-01-31T10:01:12.937Z,99098.63
2023-01-31T10:04:05.906Z,99101.59
2023-01-31T10:06:45.517Z,99102.44
2023-01-31T10:09:28.504Z,99109.03
2023-01-31T10:12:06.901Z,99099.41
2023-01-31T10:14:48.318Z,99094.34
2023-01-31T10:17:24.005Z,99088.16
2023-01-31T10:19:58.748Z,99092.03
2023-01-31T10:22:39.749Z,99084.41
2023-01-31T10:25:25.650Z,99082.19
2023-01-31T10:28:03.506Z,99091.38
2023-01-31T10:30:44.430Z,99082.56
2023-01-31T10:33:29.371Z,99081.53
2023-01-31T10:36:02.923Z,99084.34
2023-01-31T10:38:41.991Z,99074.50
2023-01-31T10:41:19.762Z,99078.50
2023-01-31T10:44:01.293Z,99069.56
2023-01-31T10:46:33.374Z,99071.59
2023-01-31T10:49:04.843Z,99062.59
2023-01-31T10:52:07.320Z,99056.72
2023-01-31T10:54:54.670Z,99057.22
2023-01-31T10:57:25.605Z,99042.41
2023-01-31T10:59:56.853Z,99038.63
2023-01-31T11:02:29.882Z,99024.06
2023-01-31T11:05:02.512Z,99037.56
2023-01-31T11:07:33.459Z,99014.00
2023-01-31T11:10:24.245Z,99018.91
2023-01-31T11:13:00.356Z,99034.19
2023-01-31T11:15:39.196Z,99028.66
2023-01-31T11:18:18.120Z,99025.25
2023-01-31T11:20:50.541Z,99013.16
2023-01-31T11:23:26.245Z,99015.16
2023-01-31T11:25:57.268Z,99003.75
2023-01-31T11:28:37.299Z,98995.09
2023-01-31T11:31:16.183Z,98984.06
2023-01-31T11:33:56.932Z,98973.47
2023-01-31T11:36:27.009Z,98969.94
2023-01-31T11:38:57.236Z,98968.91
2023-01-31T11:41:39.145Z,98976.41
2023-01-31T11:44:16.732Z,98966.66
2023-01-31T11:47:14.054Z,98956.41
2023-01-31T11:49:48.667Z,98937.50
2023-01-31T11:52:23.686Z,98932.91
2023-01-31T11:55:00.513Z,98922.34
2023-01-31T11:57:35.180Z,98918.59
2023-01-31T12:00:09.981Z,98916.47
2023-01-31T12:02:42.849Z,98912.97
2023-01-31T12:05:17.343Z,98916.00
2023-01-31T12:07:51.000Z,98908.13
2023-01-31T12:10:42.522Z,98907.47
2023-01-31T12:13:19.276Z,98908.63
2023-01-31T12:15:57.369Z,98932.22
2023-01-31T12:19:10.080Z,98913.41
2023-01-31T12:22:02.563Z,98901.19
2023-01-31T12:24:47.385Z,98893.31
2023-01-31T12:27:39.076Z,98894.38
2023-01-31T12:30:34.901Z,98892.47
2023-01-31T12:33:46.344Z,98887.09
2023-01-31T12:36:38.612Z,98874.16
2023-01-31T12:39:42.207Z,98865.91
2023-01-31T12:42:36.660Z,98863.19
2023-01-31T12:45:26.469Z,98872.69
2023-01-31T12:48:46.777Z,98889.28
2023-01-31T12:51:39.307Z,98867.41
2023-01-31T12:54:32.215Z,98864.72
2023-01-31T12:57:25.660Z,98856.97
2023-01-31T13:00:12.215Z,98841.19
2023-01-31T13:02:56.407Z,98831.81
2023-01-31T13:05:34.968Z,98843.91
2023-01-31T13:08:11.323Z,98837.78
2023-01-31T13:10:48.605Z,98842.81
2023-01-31T13:13:27.190Z,98832.38
2023-01-31T13:16:05.613Z,98840.44
2023-01-31T13:18:37.846Z,98837.75
2023-01-31T13:21:14.224Z,98836.69
2023-01-31T13:23:49.559Z,98822.22
2023-01-31T13:26:24.394Z,98814.09
2023-01-31T13:29:03.182Z,98815.63
2023-01-31T13:31:44.810Z,98810.88
2023-01-31T13:34:24.138Z,98799.44
2023-01-31T13:37:02.598Z,98797.56
2023-01-31T13:39:40.373Z,98805.75
2023-01-31T13:42:17.010Z,98804.81
2023-01-31T13:44:50.755Z,98809.88
2023-01-31T13:47:27.203Z,98800.34
2023-01-31T13:50:03.156Z,98802.78
2023-01-31T13:52:37.175Z,98803.38
2023-01-31T13:55:18.207Z,98798.06
2023-01-31T13:58:00.219Z,98797.94
2023-01-31T14:00:41.644Z,98798.75
2023-01-31T14:03:14.352Z,98788.28
2023-01-31T14:06:19.601Z,98792.00
2023-01-31T14:09:02.774Z,98791.03
2023-01-31T14:11:36.748Z,98787.50
2023-01-31T14:14:39.740Z,98793.13
2023-01-31T14:17:13.403Z,98792.31
2023-01-31T14:20:09.169Z,98792.88
2023-01-31T14:22:42.259Z,98799.81
2023-01-31T14:25:16.946Z,98794.38
2023-01-31T14:28:02.600Z,98800.13
2023-01-31T14:30:41.838Z,98805.56
2023-01-31T14:33:30.935Z,98808.13
2023-01-31T14:36:34.700Z,98811.41
2023-01-31T14:39:48.909Z,98818.78
2023-01-31T14:43:02.832Z,98826.41
2023-01-31T14:46:07.573Z,98831.22
2023-01-31T14:49:14.460Z,98830.28
2023-01-31T14:52:10.134Z,98829.47
2023-01-31T14:55:28.542Z,98823.19
2023-01-31T14:58:03.191Z,98830.03
2023-01-31T15:00:39.350Z,98824.84
2023-01-31T15:03:17.957Z,98814.38
2023-01-31T15:05:51.804Z,98811.78
2023-01-31T15:09:04.646Z,98814.22
2023-01-31T15:11:44.555Z,98825.41
2023-01-31T15:14:35.231Z,98827.06
2023-01-31T15:17:33.029Z,98834.94
2023-01-31T15:20:19.815Z,98837.25
2023-01-31T15:22:52.024Z,98840.25
2023-01-31T15:25:32.454Z,98841.88
2023-01-31T15:28:06.573Z,98846.22
2023-01-31T15:30:38.532Z,98850.47
2023-01-31T15:33:17.803Z,98854.44
2023-01-31T15:35:54.453Z,98853.88
2023-01-31T15:38:33.959Z,98854.34
2023-01-31T15:41:22.992Z,98857.88
2023-01-31T15:43:54.104Z,98846.69
2023-01-31T15:46:29.095Z,98846.41
2023-01-31T15:49:01.101Z,98857.59
2023-01-31T15:51:32.276Z,98845.31
2023-01-31T15:54:07.489Z,98847.13
2023-01-31T15:56:41.565Z,98849.00
2023-01-31T15:59:15.448Z,98847.25
2023-01-31T16:01:50.218Z,98844.38
2023-01-31T16:04:21.465Z,98840.16
2023-01-31T16:06:52.978Z,98837.00
2023-01-31T16:09:28.372Z,98832.66
2023-01-31T16:11:58.854Z,98839.22
2023-01-31T16:14:29.403Z,98836.63
2023-01-31T16:17:00.570Z,98835.53
2023-01-31T16:19:36.452Z,98838.28
2023-01-31T16:22:20.465Z,98844.94
2023-01-31T16:24:58.902Z,98842.50
2023-01-31T16:27:33.033Z,98843.19
2023-01-31T16:30:03.166Z,98844.84
2023-01-31T16:32:38.197Z,98844.00
2023-01-31T16:35:23.092Z,98853.28
2023-01-31T16:38:04.214Z,98856.00
2023-01-31T16:40:39.086Z,98858.56
2023-01-31T16:43:19.852Z,98862.25
2023-01-31T16:45:57.284Z,98852.97
2023-01-31T16:48:30.152Z,98856.25
2023-01-31T16:51:22.415Z,98852.72
2023-01-31T16:54:19.796Z,98845.63
2023-01-31T16:57:07.280Z,98849.03
2023-01-31T16:59:49.677Z,98844.69
2023-01-31T17:02:27.482Z,98844.84
2023-01-31T17:05:00.772Z,98850.00
2023-01-31T17:07:35.987Z,98852.47
2023-01-31T17:10:09.926Z,98848.94
2023-01-31T17:12:41.204Z,98853.28
2023-01-31T17:15:17.745Z,98857.63
2023-01-31T17:17:48.540Z,98851.63
2023-01-31T17:20:22.145Z,98854.22
2023-01-31T17:23:02.316Z,98844.56
2023-01-31T17:25:37.033Z,98851.38
2023-01-31T17:28:07.238Z,98855.75
2023-01-31T17:30:38.863Z,98852.19
2023-01-31T17:33:09.047Z,98857.25
2023-01-31T17:35:40.476Z,98853.28
2023-01-31T17:38:12.218Z,98844.41
2023-01-31T17:40:50.197Z,98841.72
2023-01-31T17:43:25.190Z,98846.50
2023-01-31T17:45:55.581Z,98833.69
2023-01-31T17:48:26.644Z,98830.25
2023-01-31T17:50:56.341Z,98828.22
2023-01-31T17:53:27.660Z,98844.72
2023-01-31T17:55:59.958Z,98847.06
2023-01-31T17:58:29.804Z,98839.97
2023-01-31T18:00:58.855Z,98835.63
2023-01-31T18:03:28.753Z,98840.66
2023-01-31T18:06:04.927Z,98833.84
2023-01-31T18:08:35.331Z,98845.84
2023-01-31T18:11:09.663Z,98842.31
2023-01-31T18:13:39.842Z,98848.44
2023-01-31T18:16:10.963Z,98850.06
2023-01-31T18:18:41.538Z,98855.25
2023-01-31T18:21:11.594Z,98851.84
2023-01-31T18:23:43.320Z,98849.81
2023-01-31T18:26:13.476Z,98852.28
2023-01-31T18:28:42.080Z,98844.63
2023-01-31T18:31:14.425Z,98853.09
2023-01-31T18:33:45.997Z,98853.09
2023-01-31T18:36:18.737Z,98846.28
2023-01-31T18:38:50.536Z,98850.63
2023-01-31T18:41:22.466Z,98846.94
2023-01-31T18:43:52.218Z,98847.94
2023-01-31T18:46:22.220Z,98856.53
2023-01-31T18:48:51.338Z,98840.28
2023-01-31T18:51:21.329Z,98845.34
2023-01-31T18:53:52.610Z,98851.47
2023-01-31T18:56:24.060Z,98853.94
2023-01-31T18:58:55.422Z,98860.88
2023-01-31T19:01:28.613Z,98864.28
2023-01-31T19:03:59.033Z,98853.78
2023-01-31T19:06:29.685Z,98869.34
2023-01-31T19:09:01.976Z,98852.13
2023-01-31T19:11:32.341Z,98848.59
2023-01-31T19:14:07.512Z,98846.94
2023-01-31T19:16:40.900Z,98845.06
2023-01-31T19:19:14.023Z,98851.06
2023-01-31T19:21:44.547Z,98843.41
2023-01-31T19:24:16.495Z,98841.66
2023-01-31T19:26:46.427Z,98832.13
2023-01-31T19:29:17.230Z,98838.13
2023-01-31T19:31:46.090Z,98831.13
2023-01-31T19:34:15.211Z,98824.59
2023-01-31T19:36:47.142Z,98823.91
2023-01-31T19:39:18.308Z,98823.78
2023-01-31T19:41:46.835Z,98825.44
2023-01-31T19:44:16.337Z,98817.50
2023-01-31T19:46:46.983Z,98817.25
2023-01-31T19:49:16.329Z,98820.78
2023-01-31T19:51:46.187Z,98819.84
2023-01-31T19:54:19.343Z,98826.09
2023-01-31T19:56:50.036Z,98821.75
2023-01-31T19:59:20.719Z,98826.09
2023-01-31T20:01:50.431Z,98820.94
2023-01-31T20:04:19.265Z,98826.66
2023-01-31T20:06:48.137Z,98816.41
2023-01-31T20:09:20.675Z,98819.84
2023-01-31T20:11:51.174Z,98812.31
2023-01-31T20:14:21.611Z,98801.84
2023-01-31T20:16:50.243Z,98796.66
2023-01-31T20:19:20.551Z,98806.88
2023-01-31T20:21:50.823Z,98805.66
2023-01-31T20:24:21.216Z,98805.66
2023-01-31T20:26:50.473Z,98803.06
2023-01-31T20:29:19.953Z,98807.97
2023-01-31T20:31:49.996Z,98807.16
2023-01-31T20:34:20.284Z,98817.53
2023-01-31T20:36:49.243Z,98821.88
2023-01-31T20:39:19.887Z,98833.78
2023-01-31T20:41:49.482Z,98828.59
2023-01-31T20:44:19.530Z,98836.22
2023-01-31T20:46:49.697Z,98836.22
2023-01-31T20:49:21.407Z,98836.22
2023-01-31T20:51:51.476Z,98835.94
2023-01-31T20:54:22.815Z,98833.50
2023-01-31T20:56:52.957Z,98831.03
2023-01-31T20:59:23.062Z,98838.44
2023-01-31T21:01:52.856Z,98832.16
2023-01-31T21:04:21.276Z,98831.47
2023-01-31T21:06:50.338Z,98832.41
2023-01-31T21:09:23.094Z,98826.13
2023-01-31T21:11:52.957Z,98830.53
2023-01-31T21:14:22.528Z,98820.16
2023-01-31T21:16:52.492Z,98814.72
2023-01-31T21:19:22.224Z,98825.06
2023-01-31T21:21:52.710Z,98821.50
2023-01-31T21:24:23.080Z,98819.06
2023-01-31T21:26:53.426Z,98821.78
2023-01-31T21:29:24.407Z,98822.34
2023-01-31T21:31:53.338Z,98823.44
2023-01-31T21:34:23.093Z,98825.91
2023-01-31T21:36:52.032Z,98828.22
2023-01-31T21:39:22.060Z,98823.03
2023-01-31T21:42:11.171Z,98828.06
2023-01-31T21:44:40.049Z,98823.97
2023-01-31T21:47:09.465Z,98822.88
2023-01-31T21:49:39.033Z,98818.41
2023-01-31T21:52:09.815Z,98820.28
2023-01-31T21:54:40.248Z,98826.19
2023-01-31T21:57:10.043Z,98804.47
2023-01-31T21:59:39.624Z,98793.44
2023-01-31T22:02:10.454Z,98779.53
2023-01-31T22:04:40.396Z,98782.13
2023-01-31T22:07:12.233Z,98777.59
2023-01-31T22:09:43.036Z,98765.47
2023-01-31T22:12:12.015Z,98767.91
2023-01-31T22:14:41.804Z,98782.78
2023-01-31T22:17:12.413Z,98781.41
2023-01-31T22:19:42.280Z,98783.06
2023-01-31T22:22:13.406Z,98783.06
2023-01-31T22:24:45.646Z,98788.09
2023-01-31T22:27:15.415Z,98785.25
2023-01-31T22:29:44.244Z,98774.72
2023-01-31T22:32:14.711Z,98772.13
2023-01-31T22:34:44.828Z,98790.16
2023-01-31T22:37:14.730Z,98774.59
2023-01-31T22:39:45.586Z,98768.59
2023-01-31T22:42:14.602Z,98758.22
2023-01-31T22:44:44.089Z,98764.25
2023-01-31T22:47:14.140Z,98764.09
2023-01-31T22:49:43.731Z,98766.84
2023-01-31T22:52:14.229Z,98766.69
2023-01-31T22:54:46.396Z,98751.28
2023-01-31T22:57:17.319Z,98749.50
2023-01-31T22:59:46.725Z,98757.28
2023-01-31T23:02:16.725Z,98754.53
2023-01-31T23:04:46.672Z,98744.88
2023-01-31T23:07:16.647Z,98750.06
2023-01-31T23:09:49.034Z,98749.22
2023-01-31T23:12:18.601Z,98748.41
2023-01-31T23:14:47.343Z,98753.31
2023-01-31T23:17:33.389Z,98748.13
2023-01-31T23:20:04.876Z,98741.19
2023-01-31T23:22:34.967Z,98741.84
2023-01-31T23:25:07.606Z,98746.22
2023-01-31T23:27:37.575Z,98736.66
2023-01-31T23:30:11.197Z,98744.31
2023-01-31T23:32:43.117Z,98745.97
2023-01-31T23:35:13.334Z,98739.94
2023-01-31T23:37:42.928Z,98733.13
2023-01-31T23:40:15.399Z,98727.25
2023-01-31T23:42:44.816Z,98722.63
2023-01-31T23:45:13.993Z,98731.34
2023-01-31T23:47:45.264Z,98726.00
2023-01-31T23:50:14.360Z,98721.53
2023-01-31T23:52:43.722Z,98718.22
2023-01-31T23:55:14.643Z,98702.00
2023-01-31T23:57:44.876Z,98700.91
